sensor_id;sensor_type;location;lat;lon;timestamp;temperature;humidity
65374;SHT31;52070;53.760;9.678;2023-02-01T00:00:58;4.93;85.57
65374;SHT31;52070;53.760;9.678;2023-02-01T00:03:25;4.98;85.42
65374;SHT31;52070;53.760;9.678;2023-02-01T00:05:57;5.00;85.44
65374;SHT31;52070;53.760;9.678;2023-02-01T00:08:24;5.06;85.79
65374;SHT31;52070;53.760;9.678;2023-02-01T00:10:58;5.02;86.01
65374;SHT31;52070;53.760;9.678;2023-02-01T00:13:24;4.98;86.27
65374;SHT31;52070;53.760;9.678;2023-02-01T00:15:51;4.98;86.48
65374;SHT31;52070;53.760;9.678;2023-02-01T00:18:18;5.06;86.32
65374;SHT31;52070;53.760;9.678;2023-02-01T00:20:45;5.18;85.43
65374;SHT31;52070;53.760;9.678;2023-02-01T00:23:14;5.20;85.30
65374;SHT31;52070;53.760;9.678;2023-02-01T00:25:41;5.22;85.19
65374;SHT31;52070;53.760;9.678;2023-02-01T00:28:07;5.23;84.96
65374;SHT31;52070;53.760;9.678;2023-02-01T00:30:34;5.33;84.60
65374;SHT31;52070;53.760;9.678;2023-02-01T00:33:01;5.49;83.51
65374;SHT31;52070;53.760;9.678;2023-02-01T00:35:28;5.54;82.94
65374;SHT31;52070;53.760;9.678;2023-02-01T00:37:55;5.56;82.85
65374;SHT31;52070;53.760;9.678;2023-02-01T00:40:25;5.59;82.91
65374;SHT31;52070;53.760;9.678;2023-02-01T00:42:52;5.53;83.16
65374;SHT31;52070;53.760;9.678;2023-02-01T00:45:19;5.46;83.42
65374;SHT31;52070;53.760;9.678;2023-02-01T00:47:46;5.43;83.65
65374;SHT31;52070;53.760;9.678;2023-02-01T00:50:14;5.49;83.58
65374;SHT31;52070;53.760;9.678;2023-02-01T00:52:41;5.50;83.64
65374;SHT31;52070;53.760;9.678;2023-02-01T00:55:08;5.49;83.90
65374;SHT31;52070;53.760;9.678;2023-02-01T00:57:36;5.50;84.08
65374;SHT31;52070;53.760;9.678;2023-02-01T01:00:04;5.53;84.09
65374;SHT31;52070;53.760;9.678;2023-02-01T01:02:31;5.54;84.21
65374;SHT31;52070;53.760;9.678;2023-02-01T01:04:58;5.56;84.05
65374;SHT31;52070;53.760;9.678;2023-02-01T01:07:27;5.60;84.10
65374;SHT31;52070;53.760;9.678;2023-02-01T01:09:54;5.57;84.05
65374;SHT31;52070;53.760;9.678;2023-02-01T01:12:21;5.54;84.25
65374;SHT31;52070;53.760;9.678;2023-02-01T01:14:49;5.63;83.84
65374;SHT31;52070;53.760;9.678;2023-02-01T01:17:16;5.64;83.84
65374;SHT31;52070;53.760;9.678;2023-02-01T01:19:43;5.61;84.09
65374;SHT31;52070;53.760;9.678;2023-02-01T01:22:10;5.57;84.13
65374;SHT31;52070;53.760;9.678;2023-02-01T01:24:37;5.59;84.06
65374;SHT31;52070;53.760;9.678;2023-02-01T01:27:04;5.63;83.72
65374;SHT31;52070;53.760;9.678;2023-02-01T01:29:31;5.64;83.67
65374;SHT31;52070;53.760;9.678;2023-02-01T01:31:59;5.59;83.67
65374;SHT31;52070;53.760;9.678;2023-02-01T01:34:26;5.63;83.37
65374;SHT31;52070;53.760;9.678;2023-02-01T01:36:53;5.61;83.32
65374;SHT31;52070;53.760;9.678;2023-02-01T01:39:20;5.66;82.97
65374;SHT31;52070;53.760;9.678;2023-02-01T01:41:47;5.64;83.23
65374;SHT31;52070;53.760;9.678;2023-02-01T01:44:57;5.71;82.57
65374;SHT31;52070;53.760;9.678;2023-02-01T01:47:27;5.69;82.85
65374;SHT31;52070;53.760;9.678;2023-02-01T01:49:57;5.70;82.55
65374;SHT31;52070;53.760;9.678;2023-02-01T01:52:24;5.73;82.55
65374;SHT31;52070;53.760;9.678;2023-02-01T01:54:52;5.74;82.44
65374;SHT31;52070;53.760;9.678;2023-02-01T01:57:24;5.73;82.71
65374;SHT31;52070;53.760;9.678;2023-02-01T02:00:07;5.73;82.62
65374;SHT31;52070;53.760;9.678;2023-02-01T02:02:37;5.70;82.68
65374;SHT31;52070;53.760;9.678;2023-02-01T02:05:05;5.73;82.82
65374;SHT31;52070;53.760;9.678;2023-02-01T02:07:36;5.70;82.89
65374;SHT31;52070;53.760;9.678;2023-02-01T02:10:05;5.67;83.18
65374;SHT31;52070;53.760;9.678;2023-02-01T02:12:33;5.64;83.48
65374;SHT31;52070;53.760;9.678;2023-02-01T02:15:00;5.67;83.50
65374;SHT31;52070;53.760;9.678;2023-02-01T02:17:31;5.66;83.60
65374;SHT31;52070;53.760;9.678;2023-02-01T02:26:25;5.54;85.74
65374;SHT31;52070;53.760;9.678;2023-02-01T02:29:14;5.47;86.83
65374;SHT31;52070;53.760;9.678;2023-02-01T02:32:03;5.44;87.55
65374;SHT31;52070;53.760;9.678;2023-02-01T02:34:34;5.37;87.89
65374;SHT31;52070;53.760;9.678;2023-02-01T02:37:11;5.35;87.66
65374;SHT31;52070;53.760;9.678;2023-02-01T02:39:50;5.29;87.04
65374;SHT31;52070;53.760;9.678;2023-02-01T02:42:25;5.26;86.88
65374;SHT31;52070;53.760;9.678;2023-02-01T02:45:17;5.27;87.45
65374;SHT31;52070;53.760;9.678;2023-02-01T02:48:09;5.19;88.16
65374;SHT31;52070;53.760;9.678;2023-02-01T02:50:42;5.16;88.72
65374;SHT31;52070;53.760;9.678;2023-02-01T02:53:32;5.15;89.37
65374;SHT31;52070;53.760;9.678;2023-02-01T02:56:20;5.16;89.68
65374;SHT31;52070;53.760;9.678;2023-02-01T02:59:07;5.20;89.28
65374;SHT31;52070;53.760;9.678;2023-02-01T03:01:53;5.11;89.75
65374;SHT31;52070;53.760;9.678;2023-02-01T03:04:38;5.05;89.85
65374;SHT31;52070;53.760;9.678;2023-02-01T03:07:13;5.05;89.93
65374;SHT31;52070;53.760;9.678;2023-02-01T03:09:41;5.08;89.92
65374;SHT31;52070;53.760;9.678;2023-02-01T03:12:12;5.06;90.20
65374;SHT31;52070;53.760;9.678;2023-02-01T03:15:02;5.05;90.73
65374;SHT31;52070;53.760;9.678;2023-02-01T03:17:35;5.08;91.03
65374;SHT31;52070;53.760;9.678;2023-02-01T03:20:06;5.08;91.14
65374;SHT31;52070;53.760;9.678;2023-02-01T03:22:35;5.11;91.15
65374;SHT31;52070;53.760;9.678;2023-02-01T03:25:06;5.08;91.08
65374;SHT31;52070;53.760;9.678;2023-02-01T03:27:41;5.11;90.83
65374;SHT31;52070;53.760;9.678;2023-02-01T03:30:12;5.11;90.77
65374;SHT31;52070;53.760;9.678;2023-02-01T03:32:44;5.13;90.55
65374;SHT31;52070;53.760;9.678;2023-02-01T03:35:29;5.12;90.60
65374;SHT31;52070;53.760;9.678;2023-02-01T03:38:05;5.08;90.20
65374;SHT31;52070;53.760;9.678;2023-02-01T03:40:35;5.06;89.91
65374;SHT31;52070;53.760;9.678;2023-02-01T03:43:04;5.04;90.27
65374;SHT31;52070;53.760;9.678;2023-02-01T03:45:36;5.04;90.46
65374;SHT31;52070;53.760;9.678;2023-02-01T03:48:06;4.98;90.51
65374;SHT31;52070;53.760;9.678;2023-02-01T03:50:35;4.92;90.71
65374;SHT31;52070;53.760;9.678;2023-02-01T03:53:08;4.93;90.25
65374;SHT31;52070;53.760;9.678;2023-02-01T03:55:36;5.05;89.61
65374;SHT31;52070;53.760;9.678;2023-02-01T03:58:07;5.06;89.70
65374;SHT31;52070;53.760;9.678;2023-02-01T04:00:35;5.02;90.06
65374;SHT31;52070;53.760;9.678;2023-02-01T04:03:02;4.98;90.50
65374;SHT31;52070;53.760;9.678;2023-02-01T04:05:30;4.98;90.88
65374;SHT31;52070;53.760;9.678;2023-02-01T04:07:57;4.95;91.06
65374;SHT31;52070;53.760;9.678;2023-02-01T04:10:26;4.99;90.65
65374;SHT31;52070;53.760;9.678;2023-02-01T04:12:53;4.95;90.25
65374;SHT31;52070;53.760;9.678;2023-02-01T04:15:20;4.84;89.79
65374;SHT31;52070;53.760;9.678;2023-02-01T04:17:47;4.79;90.08
65374;SHT31;52070;53.760;9.678;2023-02-01T04:20:14;4.71;90.44
65374;SHT31;52070;53.760;9.678;2023-02-01T04:22:40;4.71;91.06
65374;SHT31;52070;53.760;9.678;2023-02-01T04:25:08;4.79;91.64
65374;SHT31;52070;53.760;9.678;2023-02-01T04:27:36;4.81;92.06
65374;SHT31;52070;53.760;9.678;2023-02-01T04:30:04;4.85;92.33
65374;SHT31;52070;53.760;9.678;2023-02-01T04:32:35;4.85;92.43
65374;SHT31;52070;53.760;9.678;2023-02-01T04:35:02;4.82;91.71
65374;SHT31;52070;53.760;9.678;2023-02-01T04:37:29;4.76;91.94
65374;SHT31;52070;53.760;9.678;2023-02-01T04:39:56;4.62;91.59
65374;SHT31;52070;53.760;9.678;2023-02-01T04:42:23;4.53;91.72
65374;SHT31;52070;53.760;9.678;2023-02-01T04:44:51;4.45;91.77
65374;SHT31;52070;53.760;9.678;2023-02-01T04:47:18;4.44;91.81
65374;SHT31;52070;53.760;9.678;2023-02-01T04:49:45;4.43;91.89
65374;SHT31;52070;53.760;9.678;2023-02-01T04:52:12;4.44;91.89
65374;SHT31;52070;53.760;9.678;2023-02-01T04:54:39;4.47;91.99
65374;SHT31;52070;53.760;9.678;2023-02-01T04:57:06;4.47;92.05
65374;SHT31;52070;53.760;9.678;2023-02-01T04:59:33;4.45;92.16
65374;SHT31;52070;53.760;9.678;2023-02-01T05:02:02;4.47;92.30
65374;SHT31;52070;53.760;9.678;2023-02-01T05:04:29;4.44;92.38
65374;SHT31;52070;53.760;9.678;2023-02-01T05:06:56;4.41;92.38
65374;SHT31;52070;53.760;9.678;2023-02-01T05:09:23;4.33;92.13
65374;SHT31;52070;53.760;9.678;2023-02-01T05:11:50;4.33;91.67
65374;SHT31;52070;53.760;9.678;2023-02-01T05:14:34;4.31;91.42
65374;SHT31;52070;53.760;9.678;2023-02-01T05:17:03;4.21;91.41
65374;SHT31;52070;53.760;9.678;2023-02-01T05:19:30;4.18;91.52
65374;SHT31;52070;53.760;9.678;2023-02-01T05:21:56;4.09;91.50
65374;SHT31;52070;53.760;9.678;2023-02-01T05:24:23;4.00;91.50
65374;SHT31;52070;53.760;9.678;2023-02-01T05:26:52;3.93;91.68
65374;SHT31;52070;53.760;9.678;2023-02-01T05:29:19;3.82;91.92
65374;SHT31;52070;53.760;9.678;2023-02-01T05:31:46;3.66;92.00
65374;SHT31;52070;53.760;9.678;2023-02-01T05:34:15;3.65;92.05
65374;SHT31;52070;53.760;9.678;2023-02-01T05:36:42;3.59;92.17
65374;SHT31;52070;53.760;9.678;2023-02-01T05:39:09;3.65;92.38
65374;SHT31;52070;53.760;9.678;2023-02-01T05:41:37;3.63;92.53
65374;SHT31;52070;53.760;9.678;2023-02-01T05:44:04;3.63;92.71
65374;SHT31;52070;53.760;9.678;2023-02-01T05:46:33;3.66;92.89
65374;SHT31;52070;53.760;9.678;2023-02-01T05:49:00;3.72;93.08
65374;SHT31;52070;53.760;9.678;2023-02-01T05:51:28;3.78;93.26
65374;SHT31;52070;53.760;9.678;2023-02-01T05:53:55;3.78;93.35
65374;SHT31;52070;53.760;9.678;2023-02-01T05:56:22;3.80;93.45
65374;SHT31;52070;53.760;9.678;2023-02-01T05:58:49;3.79;93.54
65374;SHT31;52070;53.760;9.678;2023-02-01T06:01:16;3.78;93.57
65374;SHT31;52070;53.760;9.678;2023-02-01T06:03:43;3.78;93.68
65374;SHT31;52070;53.760;9.678;2023-02-01T06:06:10;3.78;93.79
65374;SHT31;52070;53.760;9.678;2023-02-01T06:08:38;3.82;93.91
65374;SHT31;52070;53.760;9.678;2023-02-01T06:11:06;3.82;94.01
65374;SHT31;52070;53.760;9.678;2023-02-01T06:13:34;3.83;94.06
65374;SHT31;52070;53.760;9.678;2023-02-01T06:16:01;3.87;94.11
65374;SHT31;52070;53.760;9.678;2023-02-01T06:18:28;3.83;94.18
65374;SHT31;52070;53.760;9.678;2023-02-01T06:20:57;3.86;94.25
65374;SHT31;52070;53.760;9.678;2023-02-01T06:23:26;3.85;94.30
65374;SHT31;52070;53.760;9.678;2023-02-01T06:25:58;3.82;94.36
65374;SHT31;52070;53.760;9.678;2023-02-01T06:28:26;3.82;94.40
65374;SHT31;52070;53.760;9.678;2023-02-01T06:30:53;3.78;94.46
65374;SHT31;52070;53.760;9.678;2023-02-01T06:33:21;3.78;94.50
65374;SHT31;52070;53.760;9.678;2023-02-01T06:35:47;3.82;94.57
65374;SHT31;52070;53.760;9.678;2023-02-01T06:38:14;3.86;94.63
65374;SHT31;52070;53.760;9.678;2023-02-01T06:40:41;3.97;94.67
65374;SHT31;52070;53.760;9.678;2023-02-01T06:43:10;4.03;94.69
65374;SHT31;52070;53.760;9.678;2023-02-01T06:45:37;4.16;94.70
65374;SHT31;52070;53.760;9.678;2023-02-01T06:48:04;4.31;94.70
65374;SHT31;52070;53.760;9.678;2023-02-01T06:50:31;4.51;94.65
65374;SHT31;52070;53.760;9.678;2023-02-01T06:52:58;4.65;94.55
65374;SHT31;52070;53.760;9.678;2023-02-01T06:55:25;4.79;94.32
65374;SHT31;52070;53.760;9.678;2023-02-01T06:57:53;4.95;93.90
65374;SHT31;52070;53.760;9.678;2023-02-01T07:00:22;5.05;93.38
65374;SHT31;52070;53.760;9.678;2023-02-01T07:02:50;5.06;92.97
65374;SHT31;52070;53.760;9.678;2023-02-01T07:05:20;5.15;92.52
65374;SHT31;52070;53.760;9.678;2023-02-01T07:07:48;5.20;91.81
65374;SHT31;52070;53.760;9.678;2023-02-01T07:10:15;5.20;90.67
65374;SHT31;52070;53.760;9.678;2023-02-01T07:12:42;5.20;90.49
65374;SHT31;52070;53.760;9.678;2023-02-01T07:15:10;5.19;90.60
65374;SHT31;52070;53.760;9.678;2023-02-01T07:17:38;5.23;90.91
65374;SHT31;52070;53.760;9.678;2023-02-01T07:20:06;5.25;90.44
65374;SHT31;52070;53.760;9.678;2023-02-01T07:22:33;5.25;90.11
65374;SHT31;52070;53.760;9.678;2023-02-01T07:25:00;5.19;89.95
65374;SHT31;52070;53.760;9.678;2023-02-01T07:27:27;5.09;89.05
65374;SHT31;52070;53.760;9.678;2023-02-01T07:29:54;5.02;88.94
65374;SHT31;52070;53.760;9.678;2023-02-01T07:32:22;5.02;88.77
65374;SHT31;52070;53.760;9.678;2023-02-01T07:34:50;5.02;88.97
65374;SHT31;52070;53.760;9.678;2023-02-01T07:37:17;5.05;89.29
65374;SHT31;52070;53.760;9.678;2023-02-01T07:39:44;5.06;89.61
65374;SHT31;52070;53.760;9.678;2023-02-01T07:42:11;5.08;89.89
65374;SHT31;52070;53.760;9.678;2023-02-01T07:44:38;5.15;89.96
65374;SHT31;52070;53.760;9.678;2023-02-01T07:47:05;5.19;90.04
65374;SHT31;52070;53.760;9.678;2023-02-01T07:49:32;5.23;90.00
65374;SHT31;52070;53.760;9.678;2023-02-01T07:52:00;5.26;89.69
65374;SHT31;52070;53.760;9.678;2023-02-01T07:54:27;5.35;89.19
65374;SHT31;52070;53.760;9.678;2023-02-01T07:56:54;5.37;88.63
65374;SHT31;52070;53.760;9.678;2023-02-01T07:59:21;5.40;88.24
65374;SHT31;52070;53.760;9.678;2023-02-01T08:01:48;5.35;88.31
65374;SHT31;52070;53.760;9.678;2023-02-01T08:04:16;5.40;88.15
65374;SHT31;52070;53.760;9.678;2023-02-01T08:06:43;5.42;88.13
65374;SHT31;52070;53.760;9.678;2023-02-01T08:09:11;5.43;88.15
65374;SHT31;52070;53.760;9.678;2023-02-01T08:11:38;5.51;87.46
65374;SHT31;52070;53.760;9.678;2023-02-01T08:14:05;5.53;87.63
65374;SHT31;52070;53.760;9.678;2023-02-01T08:16:33;5.61;87.64
65374;SHT31;52070;53.760;9.678;2023-02-01T08:19:03;5.69;87.47
65374;SHT31;52070;53.760;9.678;2023-02-01T08:21:30;5.74;87.68
65374;SHT31;52070;53.760;9.678;2023-02-01T08:24:04;5.77;86.48
65374;SHT31;52070;53.760;9.678;2023-02-01T08:26:32;5.77;86.36
65374;SHT31;52070;53.760;9.678;2023-02-01T08:29:01;5.71;86.29
65374;SHT31;52070;53.760;9.678;2023-02-01T08:31:29;5.69;86.25
65374;SHT31;52070;53.760;9.678;2023-02-01T08:33:58;5.64;86.38
65374;SHT31;52070;53.760;9.678;2023-02-01T08:36:26;5.54;86.13
65374;SHT31;52070;53.760;9.678;2023-02-01T08:38:54;5.53;86.35
65374;SHT31;52070;53.760;9.678;2023-02-01T08:41:23;5.50;86.45
65374;SHT31;52070;53.760;9.678;2023-02-01T08:43:51;5.53;85.59
65374;SHT31;52070;53.760;9.678;2023-02-01T08:46:20;5.53;85.10
65374;SHT31;52070;53.760;9.678;2023-02-01T08:48:47;5.51;85.20
65374;SHT31;52070;53.760;9.678;2023-02-01T08:51:15;5.54;85.42
65374;SHT31;52070;53.760;9.678;2023-02-01T08:53:43;5.61;85.72
65374;SHT31;52070;53.760;9.678;2023-02-01T08:56:11;5.69;85.54
65374;SHT31;52070;53.760;9.678;2023-02-01T08:58:39;5.67;85.51
65374;SHT31;52070;53.760;9.678;2023-02-01T09:01:09;5.67;85.52
65374;SHT31;52070;53.760;9.678;2023-02-01T09:03:36;5.71;85.64
65374;SHT31;52070;53.760;9.678;2023-02-01T09:06:04;5.78;85.67
65374;SHT31;52070;53.760;9.678;2023-02-01T09:08:31;5.83;85.83
65374;SHT31;52070;53.760;9.678;2023-02-01T09:10:59;5.94;85.19
65374;SHT31;52070;53.760;9.678;2023-02-01T09:13:27;6.05;84.72
65374;SHT31;52070;53.760;9.678;2023-02-01T09:15:54;6.10;84.79
65374;SHT31;52070;53.760;9.678;2023-02-01T09:18:22;6.20;85.03
65374;SHT31;52070;53.760;9.678;2023-02-01T09:20:49;6.21;84.40
65374;SHT31;52070;53.760;9.678;2023-02-01T09:23:16;6.31;84.37
65374;SHT31;52070;53.760;9.678;2023-02-01T09:25:46;6.42;83.36
65374;SHT31;52070;53.760;9.678;2023-02-01T09:28:15;6.48;83.42
65374;SHT31;52070;53.760;9.678;2023-02-01T09:30:42;6.49;83.36
65374;SHT31;52070;53.760;9.678;2023-02-01T09:33:09;6.52;82.91
65374;SHT31;52070;53.760;9.678;2023-02-01T09:35:38;6.52;83.15
65374;SHT31;52070;53.760;9.678;2023-02-01T09:38:05;6.49;83.57
65374;SHT31;52070;53.760;9.678;2023-02-01T09:40:33;6.49;82.93
65374;SHT31;52070;53.760;9.678;2023-02-01T09:43:12;6.53;82.99
65374;SHT31;52070;53.760;9.678;2023-02-01T09:45:49;6.57;83.29
65374;SHT31;52070;53.760;9.678;2023-02-01T09:48:20;6.57;82.92
65374;SHT31;52070;53.760;9.678;2023-02-01T09:50:54;6.62;83.55
65374;SHT31;52070;53.760;9.678;2023-02-01T09:53:24;6.65;82.40
65374;SHT31;52070;53.760;9.678;2023-02-01T09:55:55;6.62;83.02
65374;SHT31;52070;53.760;9.678;2023-02-01T09:58:26;6.57;83.14
65374;SHT31;52070;53.760;9.678;2023-02-01T10:00:55;6.56;82.52
65374;SHT31;52070;53.760;9.678;2023-02-01T10:03:24;6.62;83.33
65374;SHT31;52070;53.760;9.678;2023-02-01T10:06:10;6.64;83.16
65374;SHT31;52070;53.760;9.678;2023-02-01T10:08:56;6.65;83.36
65374;SHT31;52070;53.760;9.678;2023-02-01T10:11:32;6.59;83.66
65374;SHT31;52070;53.760;9.678;2023-02-01T10:14:20;6.52;84.31
65374;SHT31;52070;53.760;9.678;2023-02-01T10:16:55;6.49;84.54
65374;SHT31;52070;53.760;9.678;2023-02-01T10:19:29;6.46;84.40
65374;SHT31;52070;53.760;9.678;2023-02-01T10:22:04;6.48;83.97
65374;SHT31;52070;53.760;9.678;2023-02-01T10:24:37;6.53;84.48
65374;SHT31;52070;53.760;9.678;2023-02-01T10:27:16;6.56;84.31
65374;SHT31;52070;53.760;9.678;2023-02-01T10:29:47;6.56;84.36
65374;SHT31;52070;53.760;9.678;2023-02-01T10:32:17;6.59;83.92
65374;SHT31;52070;53.760;9.678;2023-02-01T10:34:46;6.61;83.81
65374;SHT31;52070;53.760;9.678;2023-02-01T10:37:27;6.64;82.86
65374;SHT31;52070;53.760;9.678;2023-02-01T10:39:56;6.62;83.12
65374;SHT31;52070;53.760;9.678;2023-02-01T10:42:25;6.64;83.47
65374;SHT31;52070;53.760;9.678;2023-02-01T10:44:54;6.62;83.39
65374;SHT31;52070;53.760;9.678;2023-02-01T10:47:22;6.66;83.62
65374;SHT31;52070;53.760;9.678;2023-02-01T10:49:54;6.71;83.49
65374;SHT31;52070;53.760;9.678;2023-02-01T10:52:31;6.65;83.57
65374;SHT31;52070;53.760;9.678;2023-02-01T10:55:35;6.66;83.45
65374;SHT31;52070;53.760;9.678;2023-02-01T10:58:04;6.69;83.21
65374;SHT31;52070;53.760;9.678;2023-02-01T11:00:43;6.72;84.02
65374;SHT31;52070;53.760;9.678;2023-02-01T11:03:33;6.56;85.25
65374;SHT31;52070;53.760;9.678;2023-02-01T11:06:01;6.50;84.97
65374;SHT31;52070;53.760;9.678;2023-02-01T11:08:31;6.49;84.75
65374;SHT31;52070;53.760;9.678;2023-02-01T11:10:59;6.50;84.61
65374;SHT31;52070;53.760;9.678;2023-02-01T11:13:31;6.56;84.68
65374;SHT31;52070;53.760;9.678;2023-02-01T11:16:02;6.59;84.58
65374;SHT31;52070;53.760;9.678;2023-02-01T11:18:31;6.61;84.80
65374;SHT31;52070;53.760;9.678;2023-02-01T11:20:59;6.59;84.77
65374;SHT31;52070;53.760;9.678;2023-02-01T11:23:28;6.55;85.43
65374;SHT31;52070;53.760;9.678;2023-02-01T11:25:59;6.52;85.66
65374;SHT31;52070;53.760;9.678;2023-02-01T11:28:29;6.52;85.37
65374;SHT31;52070;53.760;9.678;2023-02-01T11:31:04;6.50;85.37
65374;SHT31;52070;53.760;9.678;2023-02-01T11:33:33;6.38;85.91
65374;SHT31;52070;53.760;9.678;2023-02-01T11:36:07;6.31;86.20
65374;SHT31;52070;53.760;9.678;2023-02-01T11:38:35;6.26;86.24
65374;SHT31;52070;53.760;9.678;2023-02-01T11:41:13;6.29;85.40
65374;SHT31;52070;53.760;9.678;2023-02-01T11:43:53;6.36;84.89
65374;SHT31;52070;53.760;9.678;2023-02-01T11:46:28;6.36;84.31
65374;SHT31;52070;53.760;9.678;2023-02-01T11:48:57;6.41;83.42
65374;SHT31;52070;53.760;9.678;2023-02-01T11:51:44;6.44;82.83
65374;SHT31;52070;53.760;9.678;2023-02-01T11:54:33;6.49;83.22
65374;SHT31;52070;53.760;9.678;2023-02-01T11:57:13;6.49;82.41
65374;SHT31;52070;53.760;9.678;2023-02-01T12:00:06;6.45;83.29
65374;SHT31;52070;53.760;9.678;2023-02-01T12:03:05;6.25;84.44
65374;SHT31;52070;53.760;9.678;2023-02-01T12:05:47;6.08;85.23
65374;SHT31;52070;53.760;9.678;2023-02-01T12:08:37;5.95;85.93
65374;SHT31;52070;53.760;9.678;2023-02-01T12:11:22;5.84;85.28
65374;SHT31;52070;53.760;9.678;2023-02-01T12:14:01;5.54;86.16
65374;SHT31;52070;53.760;9.678;2023-02-01T12:16:37;5.26;86.97
65374;SHT31;52070;53.760;9.678;2023-02-01T12:19:25;5.15;88.11
65374;SHT31;52070;53.760;9.678;2023-02-01T12:22:14;4.96;88.29
65374;SHT31;52070;53.760;9.678;2023-02-01T12:25:10;4.91;88.89
65374;SHT31;52070;53.760;9.678;2023-02-01T12:34:17;4.67;88.94
65374;SHT31;52070;53.760;9.678;2023-02-01T12:36:53;4.68;88.99
65374;SHT31;52070;53.760;9.678;2023-02-01T12:39:23;4.64;89.00
65374;SHT31;52070;53.760;9.678;2023-02-01T12:41:56;4.58;88.94
65374;SHT31;52070;53.760;9.678;2023-02-01T12:44:40;4.55;89.04
65374;SHT31;52070;53.760;9.678;2023-02-01T12:47:14;4.54;89.47
65374;SHT31;52070;53.760;9.678;2023-02-01T12:49:50;4.50;89.72
65374;SHT31;52070;53.760;9.678;2023-02-01T12:52:23;4.50;89.62
65374;SHT31;52070;53.760;9.678;2023-02-01T12:54:57;4.51;89.59
65374;SHT31;52070;53.760;9.678;2023-02-01T12:57:31;4.58;89.17
65374;SHT31;52070;53.760;9.678;2023-02-01T13:00:05;4.62;88.90
65374;SHT31;52070;53.760;9.678;2023-02-01T13:02:40;4.75;88.87
65374;SHT31;52070;53.760;9.678;2023-02-01T13:05:14;5.25;88.41
65374;SHT31;52070;53.760;9.678;2023-02-01T13:07:47;5.33;86.95
65374;SHT31;52070;53.760;9.678;2023-02-01T13:10:18;5.32;86.53
65374;SHT31;52070;53.760;9.678;2023-02-01T13:12:51;5.71;85.31
65374;SHT31;52070;53.760;9.678;2023-02-01T13:15:24;6.18;85.03
65374;SHT31;52070;53.760;9.678;2023-02-01T13:17:55;6.36;83.06
65374;SHT31;52070;53.760;9.678;2023-02-01T13:20:29;6.50;82.30
65374;SHT31;52070;53.760;9.678;2023-02-01T13:23:00;6.65;82.08
65374;SHT31;52070;53.760;9.678;2023-02-01T13:25:33;6.59;83.06
65374;SHT31;52070;53.760;9.678;2023-02-01T13:28:05;6.39;83.37
65374;SHT31;52070;53.760;9.678;2023-02-01T13:30:36;5.35;82.12
65374;SHT31;52070;53.760;9.678;2023-02-01T13:33:39;4.50;83.92
65374;SHT31;52070;53.760;9.678;2023-02-01T13:36:30;3.93;85.11
65374;SHT31;52070;53.760;9.678;2023-02-01T13:39:32;3.51;86.51
65374;SHT31;52070;53.760;9.678;2023-02-01T13:42:04;3.24;87.58
65374;SHT31;52070;53.760;9.678;2023-02-01T13:44:36;3.11;88.60
65374;SHT31;52070;53.760;9.678;2023-02-01T13:47:22;3.05;89.25
65374;SHT31;52070;53.760;9.678;2023-02-01T13:49:53;3.03;89.83
65374;SHT31;52070;53.760;9.678;2023-02-01T13:52:28;3.09;90.33
65374;SHT31;52070;53.760;9.678;2023-02-01T13:55:14;3.14;90.67
65374;SHT31;52070;53.760;9.678;2023-02-01T13:57:42;3.25;90.94
65374;SHT31;52070;53.760;9.678;2023-02-01T14:00:24;3.34;91.32
65374;SHT31;52070;53.760;9.678;2023-02-01T14:03:15;3.43;91.63
65374;SHT31;52070;53.760;9.678;2023-02-01T14:09:14;3.54;92.10
65374;SHT31;52070;53.760;9.678;2023-02-01T14:11:44;3.66;92.23
65374;SHT31;52070;53.760;9.678;2023-02-01T14:14:42;4.18;92.61
65374;SHT31;52070;53.760;9.678;2023-02-01T14:17:39;4.38;92.38
65374;SHT31;52070;53.760;9.678;2023-02-01T14:23:13;4.43;91.19
65374;SHT31;52070;53.760;9.678;2023-02-01T14:25:43;4.37;90.77
65374;SHT31;52070;53.760;9.678;2023-02-01T14:28:12;4.34;90.54
65374;SHT31;52070;53.760;9.678;2023-02-01T14:30:47;4.29;90.40
65374;SHT31;52070;53.760;9.678;2023-02-01T14:33:20;4.30;90.08
65374;SHT31;52070;53.760;9.678;2023-02-01T14:36:03;4.31;89.98
65374;SHT31;52070;53.760;9.678;2023-02-01T14:38:31;4.29;89.77
65374;SHT31;52070;53.760;9.678;2023-02-01T14:41:24;4.23;90.00
65374;SHT31;52070;53.760;9.678;2023-02-01T14:44:14;4.23;90.25
65374;SHT31;52070;53.760;9.678;2023-02-01T14:50:10;4.23;90.27
65374;SHT31;52070;53.760;9.678;2023-02-01T14:52:40;4.34;90.47
65374;SHT31;52070;53.760;9.678;2023-02-01T14:55:13;4.36;90.49
65374;SHT31;52070;53.760;9.678;2023-02-01T14:57:44;4.36;90.48
65374;SHT31;52070;53.760;9.678;2023-02-01T15:00:24;4.38;90.31
65374;SHT31;52070;53.760;9.678;2023-02-01T15:02:54;4.45;90.07
65374;SHT31;52070;53.760;9.678;2023-02-01T15:05:26;4.62;89.66
65374;SHT31;52070;53.760;9.678;2023-02-01T15:07:57;4.72;89.11
65374;SHT31;52070;53.760;9.678;2023-02-01T15:10:25;4.79;88.77
65374;SHT31;52070;53.760;9.678;2023-02-01T15:12:54;4.89;88.33
65374;SHT31;52070;53.760;9.678;2023-02-01T15:15:23;4.96;87.85
65374;SHT31;52070;53.760;9.678;2023-02-01T15:17:52;4.98;87.67
65374;SHT31;52070;53.760;9.678;2023-02-01T15:20:22;4.95;87.98
65374;SHT31;52070;53.760;9.678;2023-02-01T15:22:54;4.98;88.18
65374;SHT31;52070;53.760;9.678;2023-02-01T15:25:23;4.96;88.31
65374;SHT31;52070;53.760;9.678;2023-02-01T15:27:51;4.95;88.68
65374;SHT31;52070;53.760;9.678;2023-02-01T15:30:21;4.99;88.60
65374;SHT31;52070;53.760;9.678;2023-02-01T15:32:49;5.05;88.31
65374;SHT31;52070;53.760;9.678;2023-02-01T15:35:37;5.08;88.47
65374;SHT31;52070;53.760;9.678;2023-02-01T15:38:25;5.08;88.35
65374;SHT31;52070;53.760;9.678;2023-02-01T15:40:58;5.06;88.04
65374;SHT31;52070;53.760;9.678;2023-02-01T15:43:27;5.09;87.90
65374;SHT31;52070;53.760;9.678;2023-02-01T15:45:58;5.13;87.87
65374;SHT31;52070;53.760;9.678;2023-02-01T15:48:27;5.18;87.16
65374;SHT31;52070;53.760;9.678;2023-02-01T15:50:56;5.27;85.99
65374;SHT31;52070;53.760;9.678;2023-02-01T15:53:25;5.30;85.69
65374;SHT31;52070;53.760;9.678;2023-02-01T15:55:58;5.36;85.35
65374;SHT31;52070;53.760;9.678;2023-02-01T15:58:26;5.40;84.98
65374;SHT31;52070;53.760;9.678;2023-02-01T16:00:57;5.40;85.37
65374;SHT31;52070;53.760;9.678;2023-02-01T16:03:34;5.35;85.88
65374;SHT31;52070;53.760;9.678;2023-02-01T16:06:03;5.37;85.91
65374;SHT31;52070;53.760;9.678;2023-02-01T16:08:32;5.43;85.61
65374;SHT31;52070;53.760;9.678;2023-02-01T16:11:10;5.46;85.38
65374;SHT31;52070;53.760;9.678;2023-02-01T16:13:40;5.51;85.41
65374;SHT31;52070;53.760;9.678;2023-02-01T16:16:09;5.54;85.33
65374;SHT31;52070;53.760;9.678;2023-02-01T16:18:39;5.63;84.87
65374;SHT31;52070;53.760;9.678;2023-02-01T16:21:06;5.69;84.31
65374;SHT31;52070;53.760;9.678;2023-02-01T16:23:34;5.75;83.65
65374;SHT31;52070;53.760;9.678;2023-02-01T16:26:01;5.77;83.56
65374;SHT31;52070;53.760;9.678;2023-02-01T16:28:28;5.71;83.20
65374;SHT31;52070;53.760;9.678;2023-02-01T16:30:55;5.73;83.04
65374;SHT31;52070;53.760;9.678;2023-02-01T16:33:24;5.70;83.39
65374;SHT31;52070;53.760;9.678;2023-02-01T16:35:52;5.69;83.24